createdAt,value
2023-05-21T00:00:59.415Z,72.61
2023-05-21T00:03:42.009Z,72.81
2023-05-21T00:06:10.055Z,73.10
2023-05-21T00:08:38.011Z,73.49
2023-05-21T00:11:06.645Z,74.04
2023-05-21T00:13:34.557Z,74.38
2023-05-21T00:16:02.451Z,74.61
2023-05-21T00:18:32.469Z,74.82
2023-05-21T00:21:01.995Z,75.26
2023-05-21T00:23:32.666Z,75.73
2023-05-21T00:26:00.659Z,75.85
2023-05-21T00:28:28.634Z,76.20
2023-05-21T00:30:56.535Z,76.65
2023-05-21T00:33:26.654Z,76.70
2023-05-21T00:35:56.888Z,76.74
2023-05-21T00:38:27.996Z,76.66
2023-05-21T00:40:56.575Z,76.74
2023-05-21T00:43:26.640Z,76.66
2023-05-21T00:45:56.654Z,76.47
2023-05-21T00:48:26.256Z,76.34
2023-05-21T00:50:55.018Z,76.53
2023-05-21T00:53:23.601Z,76.58
2023-05-21T00:55:51.570Z,76.68
2023-05-21T00:58:20.370Z,77.07
2023-05-21T01:00:48.421Z,77.14
2023-05-21T01:03:17.144Z,77.47
2023-05-21T01:05:46.918Z,77.53
2023-05-21T01:08:15.032Z,77.56
2023-05-21T01:10:42.995Z,77.61
2023-05-21T01:13:11.226Z,77.46
2023-05-21T01:15:39.190Z,77.74
2023-05-21T01:18:07.929Z,77.82
2023-05-21T01:20:37.838Z,77.90
2023-05-21T01:23:06.305Z,77.97
2023-05-21T01:25:35.421Z,78.04
2023-05-21T01:28:03.595Z,78.11
2023-05-21T01:30:31.567Z,78.57
2023-05-21T01:33:05.037Z,78.91
2023-05-21T01:35:39.105Z,79.36
2023-05-21T01:38:54.974Z,79.20
2023-05-21T01:41:26.395Z,79.48
2023-05-21T01:43:56.552Z,79.44
2023-05-21T01:46:27.809Z,79.54
2023-05-21T01:48:59.469Z,79.63
2023-05-21T01:51:28.015Z,79.34
2023-05-21T01:53:56.077Z,79.20
2023-05-21T01:56:25.800Z,79.24
2023-05-21T01:58:56.847Z,78.93
2023-05-21T02:01:25.009Z,78.55
2023-05-21T02:03:53.071Z,77.39
2023-05-21T02:06:20.963Z,76.47
2023-05-21T02:08:48.741Z,75.35
2023-05-21T02:11:16.776Z,74.63
2023-05-21T02:13:46.355Z,74.34
2023-05-21T02:16:16.143Z,74.05
2023-05-21T02:18:44.387Z,73.83
2023-05-21T02:21:12.423Z,73.78
2023-05-21T02:23:41.775Z,73.46
2023-05-21T02:26:09.717Z,73.39
2023-05-21T02:28:37.602Z,73.51
2023-05-21T02:31:05.616Z,73.39
2023-05-21T02:33:33.688Z,73.58
2023-05-21T02:36:01.756Z,73.70
2023-05-21T02:38:29.477Z,73.79
2023-05-21T02:40:57.601Z,73.95
2023-05-21T02:43:25.764Z,74.13
2023-05-21T02:45:54.027Z,74.23
2023-05-21T02:48:22.891Z,74.50
2023-05-21T02:50:50.907Z,74.59
2023-05-21T02:53:18.806Z,74.86
2023-05-21T02:55:46.816Z,74.94
2023-05-21T02:58:15.163Z,75.09
2023-05-21T03:00:43.229Z,75.25
2023-05-21T03:03:11.951Z,75.47
2023-05-21T03:05:39.926Z,75.47
2023-05-21T03:08:07.939Z,75.76
2023-05-21T03:10:36.044Z,75.87
2023-05-21T03:13:06.383Z,76.03
2023-05-21T03:15:35.919Z,76.14
2023-05-21T03:18:04.284Z,76.32
2023-05-21T03:20:32.780Z,76.35
2023-05-21T03:23:04.509Z,76.29
2023-05-21T03:25:33.003Z,76.56
2023-05-21T03:28:01.208Z,76.69
2023-05-21T03:30:49.654Z,76.71
2023-05-21T03:33:35.971Z,76.82
2023-05-21T03:36:13.790Z,77.14
2023-05-21T03:38:41.613Z,77.46
2023-05-21T03:41:11.051Z,78.09
2023-05-21T03:43:40.072Z,78.29
2023-05-21T03:46:08.138Z,78.36
2023-05-21T03:48:38.714Z,78.56
2023-05-21T03:51:07.897Z,78.55
2023-05-21T03:53:36.994Z,78.65
2023-05-21T03:56:05.672Z,78.99
2023-05-21T03:58:33.936Z,79.11
2023-05-21T04:01:02.829Z,79.06
2023-05-21T04:03:36.748Z,79.13
2023-05-21T04:06:07.299Z,79.39
2023-05-21T04:08:36.665Z,79.49
2023-05-21T04:11:04.717Z,79.72
2023-05-21T04:13:32.769Z,79.90
2023-05-21T04:16:01.349Z,80.38
2023-05-21T04:18:30.283Z,80.32
2023-05-21T04:21:00.913Z,80.25
2023-05-21T04:23:28.834Z,80.23
2023-05-21T04:25:57.425Z,80.37
2023-05-21T04:28:28.949Z,80.38
2023-05-21T04:30:57.219Z,80.81
2023-05-21T04:33:25.777Z,80.95
2023-05-21T04:35:53.999Z,80.79
2023-05-21T04:38:21.885Z,80.91
2023-05-21T04:40:52.392Z,80.84
2023-05-21T04:43:26.386Z,80.85
2023-05-21T04:45:55.113Z,80.96
2023-05-21T04:48:26.897Z,80.97
2023-05-21T04:50:56.178Z,80.79
2023-05-21T04:53:26.214Z,80.67
2023-05-21T04:55:54.404Z,80.55
2023-05-21T04:58:22.437Z,80.65
2023-05-21T05:00:52.014Z,80.92
2023-05-21T05:03:20.221Z,80.85
2023-05-21T05:05:48.471Z,80.88
2023-05-21T05:08:17.136Z,80.84
2023-05-21T05:10:45.043Z,80.74
2023-05-21T05:13:12.983Z,80.87
2023-05-21T05:15:41.331Z,80.92
2023-05-21T05:18:09.643Z,80.74
2023-05-21T05:20:37.742Z,80.53
2023-05-21T05:23:06.454Z,80.28
2023-05-21T05:25:34.332Z,79.82
2023-05-21T05:28:02.323Z,79.30
2023-05-21T05:30:30.628Z,78.54
2023-05-21T05:33:05.692Z,77.75
2023-05-21T05:35:33.666Z,77.18
2023-05-21T05:38:01.840Z,77.12
2023-05-21T05:40:29.870Z,76.86
2023-05-21T05:42:57.704Z,76.74
2023-05-21T05:45:26.849Z,76.54
2023-05-21T05:47:55.441Z,75.73
2023-05-21T05:50:23.400Z,75.84
2023-05-21T05:52:51.469Z,75.96
2023-05-21T05:55:19.290Z,76.10
2023-05-21T05:57:47.213Z,76.23
2023-05-21T06:00:16.578Z,75.96
2023-05-21T06:02:48.396Z,75.70
2023-05-21T06:05:16.859Z,75.71
2023-05-21T06:07:45.187Z,76.13
2023-05-21T06:10:13.189Z,75.98
2023-05-21T06:12:41.105Z,75.95
2023-05-21T06:15:10.029Z,75.66
2023-05-21T06:17:38.221Z,75.64
2023-05-21T06:20:09.073Z,75.30
2023-05-21T06:22:37.278Z,75.22
2023-05-21T06:25:08.212Z,75.04
2023-05-21T06:27:38.137Z,75.42
2023-05-21T06:30:09.290Z,75.42
2023-05-21T06:32:37.298Z,75.28
2023-05-21T06:35:06.294Z,75.41
2023-05-21T06:37:34.305Z,74.69
2023-05-21T06:40:04.360Z,74.07
2023-05-21T06:42:32.662Z,73.73
2023-05-21T06:45:19.248Z,73.75
2023-05-21T06:47:47.575Z,73.37
2023-05-21T06:50:15.661Z,72.99
2023-05-21T06:52:43.689Z,72.72
2023-05-21T06:55:12.067Z,72.19
2023-05-21T06:58:09.429Z,71.10
2023-05-21T07:00:37.476Z,70.88
2023-05-21T07:03:05.987Z,70.92
2023-05-21T07:05:34.572Z,70.42
2023-05-21T07:08:02.521Z,68.22
2023-05-21T07:10:30.763Z,66.98
2023-05-21T07:12:58.910Z,65.90
2023-05-21T07:15:27.910Z,64.78
2023-05-21T07:17:56.586Z,63.79
2023-05-21T07:20:25.324Z,64.18
2023-05-21T07:22:54.668Z,63.92
2023-05-21T07:25:22.550Z,63.79
2023-05-21T07:27:50.646Z,62.28
2023-05-21T07:30:18.683Z,62.38
2023-05-21T07:32:47.374Z,62.47
2023-05-21T07:35:15.585Z,62.28
2023-05-21T07:37:43.749Z,61.37
2023-05-21T07:40:13.235Z,61.49
2023-05-21T07:42:41.249Z,61.79
2023-05-21T07:45:09.876Z,60.40
2023-05-21T07:47:41.415Z,59.20
2023-05-21T07:50:10.202Z,59.25
2023-05-21T07:52:38.868Z,57.67
2023-05-21T07:55:08.970Z,57.85
2023-05-21T07:57:37.423Z,57.67
2023-05-21T08:00:10.914Z,56.71
2023-05-21T08:02:47.984Z,56.51
2023-05-21T08:05:19.134Z,57.44
2023-05-21T08:07:47.752Z,58.34
2023-05-21T08:10:18.453Z,58.89
2023-05-21T08:12:47.911Z,59.28
2023-05-21T08:15:16.266Z,59.91
2023-05-21T08:17:46.282Z,59.95
2023-05-21T08:20:15.333Z,59.79
2023-05-21T08:22:44.773Z,59.32
2023-05-21T08:25:12.699Z,59.11
2023-05-21T08:27:40.946Z,58.46
2023-05-21T08:30:11.745Z,56.40
2023-05-21T08:32:40.426Z,56.21
2023-05-21T08:35:08.998Z,56.48
2023-05-21T08:37:55.000Z,55.82
2023-05-21T08:40:30.887Z,54.86
2023-05-21T08:42:59.141Z,55.17
2023-05-21T08:45:38.169Z,55.40
2023-05-21T08:48:09.029Z,55.38
2023-05-21T08:50:37.406Z,54.76
2023-05-21T08:53:19.871Z,53.22
2023-05-21T08:55:57.310Z,53.71
2023-05-21T08:58:32.311Z,52.87
2023-05-21T09:01:00.649Z,51.50
2023-05-21T09:03:31.880Z,47.81
2023-05-21T09:06:00.697Z,47.03
2023-05-21T09:08:32.775Z,47.83
2023-05-21T09:11:04.212Z,47.63
2023-05-21T09:13:46.469Z,47.01
2023-05-21T09:16:20.220Z,45.83
2023-05-21T09:18:49.385Z,43.79
2023-05-21T09:21:31.812Z,44.13
2023-05-21T09:24:04.126Z,44.39
2023-05-21T09:26:32.281Z,44.39
2023-05-21T09:29:03.763Z,44.13
2023-05-21T09:31:33.020Z,45.32
2023-05-21T09:34:02.009Z,45.61
2023-05-21T09:36:30.473Z,45.84
2023-05-21T09:39:00.086Z,45.94
2023-05-21T09:41:36.056Z,47.35
2023-05-21T09:44:05.132Z,47.65
2023-05-21T09:46:39.803Z,47.19
2023-05-21T09:49:23.631Z,46.82
2023-05-21T09:51:57.150Z,46.88
2023-05-21T09:54:26.538Z,47.37
2023-05-21T09:56:54.641Z,47.77
2023-05-21T09:59:23.127Z,48.78
2023-05-21T10:01:52.929Z,49.53
2023-05-21T10:04:22.855Z,49.78
2023-05-21T10:06:51.225Z,49.58
2023-05-21T10:09:20.283Z,48.27
2023-05-21T10:11:53.235Z,47.79
2023-05-21T10:14:23.661Z,47.59
2023-05-21T10:16:54.445Z,45.90
2023-05-21T10:19:24.990Z,44.32
2023-05-21T10:21:55.618Z,46.44
2023-05-21T10:24:24.986Z,47.81
2023-05-21T10:26:53.574Z,49.20
2023-05-21T10:29:23.161Z,49.33
2023-05-21T10:31:52.862Z,49.71
2023-05-21T10:34:21.818Z,49.45
2023-05-21T10:36:51.020Z,48.30
2023-05-21T10:39:21.034Z,47.61
2023-05-21T10:42:17.535Z,46.72
2023-05-21T10:45:12.730Z,46.03
2023-05-21T10:47:54.359Z,45.50
2023-05-21T10:50:50.333Z,46.18
2023-05-21T10:53:48.984Z,46.64
2023-05-21T10:56:30.976Z,46.20
2023-05-21T10:59:12.806Z,45.92
2023-05-21T11:01:42.292Z,45.66
2023-05-21T11:04:12.386Z,45.80
2023-05-21T11:06:40.441Z,45.28
2023-05-21T11:09:13.774Z,45.77
2023-05-21T11:11:58.944Z,45.59
2023-05-21T11:14:35.898Z,45.83
2023-05-21T11:17:14.780Z,45.60
2023-05-21T11:19:47.399Z,45.50
2023-05-21T11:22:24.289Z,45.30
2023-05-21T11:25:00.928Z,44.99
2023-05-21T11:27:37.127Z,44.27
2023-05-21T11:30:10.807Z,43.63
2023-05-21T11:32:40.150Z,43.40
2023-05-21T11:35:08.979Z,43.75
2023-05-21T11:37:40.893Z,42.97
2023-05-21T11:40:28.325Z,43.15
2023-05-21T11:42:57.232Z,43.17
2023-05-21T11:45:31.171Z,43.40
2023-05-21T11:48:00.220Z,43.37
2023-05-21T11:50:30.916Z,42.64
2023-05-21T11:52:59.870Z,42.29
2023-05-21T11:55:28.222Z,41.71
2023-05-21T11:57:56.480Z,40.22
2023-05-21T12:00:24.582Z,39.83
2023-05-21T12:02:53.725Z,40.60
2023-05-21T12:05:22.767Z,40.78
2023-05-21T12:07:51.083Z,39.86
2023-05-21T12:10:24.096Z,39.53
2023-05-21T12:12:55.784Z,40.06
2023-05-21T12:15:27.472Z,39.39
2023-05-21T12:17:56.970Z,38.95
2023-05-21T12:20:28.859Z,39.24
2023-05-21T12:22:58.920Z,39.29
2023-05-21T12:25:27.678Z,39.11
2023-05-21T12:27:58.000Z,39.17
2023-05-21T12:30:26.418Z,38.76
2023-05-21T12:32:58.596Z,39.48
2023-05-21T12:35:26.840Z,39.36
2023-05-21T12:37:54.935Z,38.99
2023-05-21T12:40:36.626Z,38.60
2023-05-21T12:43:05.477Z,39.15
2023-05-21T12:45:33.840Z,39.04
2023-05-21T12:48:03.140Z,38.72
2023-05-21T12:50:33.106Z,37.58
2023-05-21T12:53:01.302Z,37.96
2023-05-21T12:55:31.666Z,37.95
2023-05-21T12:58:13.856Z,38.79
2023-05-21T13:00:43.703Z,39.50
2023-05-21T13:03:12.096Z,39.34
2023-05-21T13:05:44.406Z,39.42
2023-05-21T13:08:14.365Z,39.12
2023-05-21T13:10:42.183Z,39.15
2023-05-21T13:13:10.322Z,39.21
2023-05-21T13:15:38.207Z,38.88
2023-05-21T13:18:06.069Z,39.10
2023-05-21T13:20:34.201Z,39.42
2023-05-21T13:23:05.657Z,39.80
2023-05-21T13:25:34.965Z,39.62
2023-05-21T13:28:08.731Z,38.92
2023-05-21T13:30:37.168Z,38.98
2023-05-21T13:33:06.378Z,39.09
2023-05-21T13:35:34.778Z,39.31
2023-05-21T13:38:02.693Z,39.56
2023-05-21T13:40:30.891Z,39.85
2023-05-21T13:42:58.860Z,40.06
2023-05-21T13:45:29.591Z,40.04
2023-05-21T13:47:58.392Z,39.75
2023-05-21T13:50:26.587Z,40.28
2023-05-21T13:52:55.198Z,40.63
2023-05-21T13:55:24.159Z,40.80
2023-05-21T13:57:52.110Z,40.09
2023-05-21T14:00:20.192Z,39.46
2023-05-21T14:02:48.449Z,39.77
2023-05-21T14:05:16.606Z,39.45
2023-05-21T14:07:45.454Z,39.73
2023-05-21T14:10:13.507Z,39.73
2023-05-21T14:12:42.223Z,40.15
2023-05-21T14:15:11.943Z,40.67
2023-05-21T14:17:42.418Z,40.69
2023-05-21T14:20:11.114Z,40.67
2023-05-21T14:22:39.282Z,41.06
2023-05-21T14:25:07.368Z,41.10
2023-05-21T14:27:37.981Z,41.45
2023-05-21T14:30:06.829Z,41.09
2023-05-21T14:32:34.885Z,41.44
2023-05-21T14:35:03.088Z,41.61
2023-05-21T14:37:30.973Z,41.54
2023-05-21T14:39:58.841Z,41.33
2023-05-21T14:42:26.780Z,41.05
2023-05-21T14:44:54.598Z,40.73
2023-05-21T14:47:22.505Z,41.39
2023-05-21T14:49:51.501Z,41.59
2023-05-21T14:52:19.750Z,40.96
2023-05-21T14:54:47.774Z,41.04
2023-05-21T14:57:15.812Z,41.55
2023-05-21T14:59:43.699Z,42.02
2023-05-21T15:02:11.674Z,42.14
2023-05-21T15:04:40.287Z,42.01
2023-05-21T15:07:08.161Z,41.87
2023-05-21T15:09:36.182Z,41.62
2023-05-21T15:12:04.443Z,40.66
2023-05-21T15:14:32.398Z,40.88
2023-05-21T15:17:00.263Z,40.88
2023-05-21T15:19:28.537Z,40.86
2023-05-21T15:21:56.576Z,41.37
2023-05-21T15:24:24.448Z,41.16
2023-05-21T15:26:52.457Z,40.70
2023-05-21T15:29:20.328Z,40.42
2023-05-21T15:31:48.220Z,40.89
2023-05-21T15:34:18.158Z,41.09
2023-05-21T15:36:46.175Z,41.02
2023-05-21T15:39:14.145Z,41.03
2023-05-21T15:41:42.112Z,41.23
2023-05-21T15:44:10.161Z,41.68
2023-05-21T15:46:38.078Z,42.09
2023-05-21T15:49:06.169Z,42.06
2023-05-21T15:51:34.067Z,41.83
2023-05-21T15:54:01.858Z,42.06
2023-05-21T15:56:29.864Z,42.09
2023-05-21T15:59:01.338Z,42.46
2023-05-21T16:01:29.826Z,42.55
2023-05-21T16:03:58.241Z,41.76
2023-05-21T16:06:26.270Z,40.51
2023-05-21T16:08:54.097Z,40.74
2023-05-21T16:11:22.463Z,41.33
2023-05-21T16:13:50.436Z,41.35
2023-05-21T16:16:18.471Z,42.09
2023-05-21T16:18:46.423Z,41.76
2023-05-21T16:21:14.665Z,42.29
2023-05-21T16:23:42.802Z,42.51
2023-05-21T16:26:11.026Z,42.36
2023-05-21T16:28:38.993Z,42.81
2023-05-21T16:31:07.078Z,43.19
2023-05-21T16:33:35.014Z,43.52
2023-05-21T16:36:02.964Z,43.87
2023-05-21T16:38:31.587Z,43.92
2023-05-21T16:40:59.640Z,43.86
2023-05-21T16:43:27.659Z,43.64
2023-05-21T16:45:55.725Z,43.38
2023-05-21T16:48:23.738Z,43.59
2023-05-21T16:50:51.584Z,44.13
2023-05-21T16:53:19.558Z,44.27
2023-05-21T16:55:47.500Z,44.49
2023-05-21T16:58:15.469Z,44.52
2023-05-21T17:00:43.395Z,44.57
2023-05-21T17:03:12.740Z,44.85
2023-05-21T17:05:41.325Z,45.10
2023-05-21T17:08:09.241Z,45.27
2023-05-21T17:10:37.203Z,45.46
2023-05-21T17:13:17.649Z,45.74
2023-05-21T17:15:49.722Z,45.76
2023-05-21T17:18:17.831Z,45.93
2023-05-21T17:20:48.582Z,46.02
2023-05-21T17:23:16.674Z,46.38
2023-05-21T17:25:44.767Z,46.44
2023-05-21T17:28:12.941Z,46.72
2023-05-21T17:30:41.256Z,47.03
2023-05-21T17:33:10.437Z,47.50
2023-05-21T17:35:38.998Z,47.87
2023-05-21T17:38:07.381Z,47.96
2023-05-21T17:40:35.670Z,48.22
2023-05-21T17:43:05.105Z,48.74
2023-05-21T17:45:33.239Z,48.92
2023-05-21T17:48:01.171Z,49.31
2023-05-21T17:50:29.225Z,49.46
2023-05-21T17:52:57.406Z,49.82
2023-05-21T17:55:25.319Z,50.16
2023-05-21T17:57:53.200Z,50.43
2023-05-21T18:00:21.417Z,50.65
2023-05-21T18:02:49.398Z,51.01
2023-05-21T18:05:17.571Z,51.34
2023-05-21T18:07:45.371Z,51.61
2023-05-21T18:10:15.409Z,52.26
2023-05-21T18:12:46.511Z,54.06
2023-05-21T18:15:15.454Z,55.11
2023-05-21T18:17:43.505Z,55.65
2023-05-21T18:20:12.283Z,55.92
2023-05-21T18:22:40.199Z,56.13
2023-05-21T18:25:09.026Z,56.04
2023-05-21T18:27:37.018Z,56.30
2023-05-21T18:30:06.509Z,57.11
2023-05-21T18:32:35.052Z,57.50
2023-05-21T18:35:03.743Z,57.69
2023-05-21T18:37:31.918Z,58.66
2023-05-21T18:40:00.036Z,58.70
2023-05-21T18:42:28.308Z,59.50
2023-05-21T18:44:56.460Z,60.15
2023-05-21T18:47:24.691Z,60.86
2023-05-21T18:49:52.772Z,61.29
2023-05-21T18:52:20.895Z,61.35
2023-05-21T18:54:48.781Z,61.83
2023-05-21T18:57:16.783Z,62.22
2023-05-21T18:59:45.116Z,63.14
2023-05-21T19:02:13.031Z,63.42
2023-05-21T19:04:41.275Z,64.12
2023-05-21T19:07:09.160Z,64.77
2023-05-21T19:09:37.088Z,65.83
2023-05-21T19:12:05.571Z,66.25
2023-05-21T19:14:33.607Z,67.05
2023-05-21T19:17:01.602Z,67.50
2023-05-21T19:19:36.150Z,67.05
2023-05-21T19:22:04.285Z,67.13
2023-05-21T19:24:32.282Z,68.02
2023-05-21T19:27:00.864Z,68.59
2023-05-21T19:29:28.925Z,68.19
2023-05-21T19:31:58.493Z,68.82
2023-05-21T19:34:27.130Z,68.75
2023-05-21T19:36:55.257Z,68.56
2023-05-21T19:39:23.438Z,68.95
2023-05-21T19:41:52.922Z,69.33
2023-05-21T19:44:21.064Z,69.30
2023-05-21T19:47:04.065Z,69.18
2023-05-21T19:49:32.894Z,69.57
2023-05-21T19:52:07.873Z,69.64
2023-05-21T19:54:36.997Z,69.24
2023-05-21T19:57:09.644Z,69.38
2023-05-21T19:59:39.612Z,69.35
2023-05-21T20:02:14.257Z,69.18
2023-05-21T20:04:43.036Z,69.29
2023-05-21T20:07:13.024Z,68.86
2023-05-21T20:09:41.276Z,68.84
2023-05-21T20:12:09.453Z,69.35
2023-05-21T20:14:37.418Z,70.08
2023-05-21T20:17:05.905Z,69.69
2023-05-21T20:19:34.857Z,69.95
2023-05-21T20:22:03.217Z,69.72
2023-05-21T20:24:33.790Z,69.58
2023-05-21T20:27:01.889Z,69.76
2023-05-21T20:29:29.959Z,69.97
2023-05-21T20:31:58.390Z,69.98
2023-05-21T20:34:27.570Z,70.50
2023-05-21T20:36:58.573Z,70.73
2023-05-21T20:39:29.923Z,71.39
2023-05-21T20:41:58.634Z,71.09
2023-05-21T20:44:27.595Z,71.95
2023-05-21T20:46:55.655Z,71.99
2023-05-21T20:49:25.837Z,71.20
2023-05-21T20:51:54.356Z,71.45
2023-05-21T20:54:22.498Z,71.29
2023-05-21T20:56:50.901Z,70.80
2023-05-21T20:59:18.819Z,70.61
2023-05-21T21:01:50.585Z,70.01
2023-05-21T21:04:19.071Z,70.29
2023-05-21T21:06:51.425Z,70.36
2023-05-21T21:09:24.513Z,70.62
2023-05-21T21:11:59.258Z,70.79
2023-05-21T21:14:29.015Z,69.26
2023-05-21T21:16:58.311Z,68.37
2023-05-21T21:19:26.391Z,68.79
2023-05-21T21:21:54.397Z,69.10
2023-05-21T21:24:22.370Z,68.75
2023-05-21T21:26:54.632Z,68.88
2023-05-21T21:29:24.246Z,70.41
2023-05-21T21:31:52.933Z,70.78
2023-05-21T21:34:23.502Z,71.22
2023-05-21T21:36:51.576Z,71.17
2023-05-21T21:39:19.514Z,71.37
2023-05-21T21:41:47.974Z,71.67
2023-05-21T21:44:16.023Z,71.68
2023-05-21T21:46:43.901Z,71.82
2023-05-21T21:49:11.701Z,72.23
2023-05-21T21:51:40.007Z,71.79
2023-05-21T21:54:07.969Z,71.75
2023-05-21T21:56:36.115Z,71.70
2023-05-21T21:59:04.148Z,72.34
2023-05-21T22:01:32.115Z,72.14
2023-05-21T22:04:00.175Z,72.66
2023-05-21T22:06:28.667Z,73.33
2023-05-21T22:08:56.723Z,73.74
2023-05-21T22:11:24.666Z,74.16
2023-05-21T22:13:53.894Z,74.74
2023-05-21T22:16:21.972Z,75.09
2023-05-21T22:18:50.205Z,75.19
2023-05-21T22:21:18.606Z,75.69
2023-05-21T22:23:46.519Z,75.90
2023-05-21T22:26:14.290Z,76.24
2023-05-21T22:28:42.653Z,76.52
2023-05-21T22:31:10.730Z,76.99
2023-05-21T22:33:39.354Z,77.22
2023-05-21T22:36:07.742Z,77.16
2023-05-21T22:38:35.996Z,77.65
2023-05-21T22:41:04.008Z,77.34
2023-05-21T22:43:34.898Z,77.47
2023-05-21T22:46:03.113Z,78.08
2023-05-21T22:48:34.578Z,78.76
2023-05-21T22:51:06.607Z,79.99
2023-05-21T22:53:34.554Z,79.63
2023-05-21T22:56:02.421Z,79.88
2023-05-21T22:58:30.387Z,80.30
2023-05-21T23:00:58.378Z,80.20
2023-05-21T23:03:26.330Z,80.46
2023-05-21T23:05:54.182Z,80.57
2023-05-21T23:08:22.016Z,80.44
2023-05-21T23:10:49.957Z,80.70
2023-05-21T23:13:17.869Z,80.83
2023-05-21T23:15:51.249Z,81.06
2023-05-21T23:18:19.744Z,81.38
2023-05-21T23:20:47.766Z,81.61
2023-05-21T23:23:15.760Z,82.08
2023-05-21T23:25:43.851Z,82.26
2023-05-21T23:28:11.853Z,81.82
2023-05-21T23:30:40.105Z,82.02
2023-05-21T23:33:08.454Z,82.33
2023-05-21T23:35:36.692Z,82.27
2023-05-21T23:38:04.957Z,82.47
2023-05-21T23:40:32.859Z,82.22
2023-05-21T23:43:01.263Z,82.21
2023-05-21T23:45:29.408Z,82.06
2023-05-21T23:47:57.459Z,82.43
2023-05-21T23:50:26.167Z,83.17
2023-05-21T23:52:54.218Z,84.11
2023-05-21T23:55:22.104Z,84.23
2023-05-21T23:57:49.985Z,84.35
